sensor_id;sensor_type;location;lat;lon;timestamp;temperature;humidity
356;DHT22;62514;48.112;11.566;2024-02-28T00:01:03;6.10;19.70
356;DHT22;62514;48.112;11.566;2024-02-28T00:03:29;6.00;20.20
356;DHT22;62514;48.112;11.566;2024-02-28T00:05:57;6.10;21.00
356;DHT22;62514;48.112;11.566;2024-02-28T00:08:23;6.10;21.20
356;DHT22;62514;48.112;11.566;2024-02-28T00:10:49;6.10;21.10
356;DHT22;62514;48.112;11.566;2024-02-28T00:13:15;6.20;21.10
356;DHT22;62514;48.112;11.566;2024-02-28T00:15:42;6.20;21.20
356;DHT22;62514;48.112;11.566;2024-02-28T00:18:07;6.30;21.40
356;DHT22;62514;48.112;11.566;2024-02-28T00:20:33;6.30;21.20
356;DHT22;62514;48.112;11.566;2024-02-28T00:22:59;6.30;21.00
356;DHT22;62514;48.112;11.566;2024-02-28T00:25:25;6.30;21.20
356;DHT22;62514;48.112;11.566;2024-02-28T00:27:51;6.30;21.50
356;DHT22;62514;48.112;11.566;2024-02-28T00:30:18;6.40;21.60
356;DHT22;62514;48.112;11.566;2024-02-28T00:32:43;6.30;22.30
356;DHT22;62514;48.112;11.566;2024-02-28T00:35:09;6.30;22.50
356;DHT22;62514;48.112;11.566;2024-02-28T00:37:35;6.20;23.40
356;DHT22;62514;48.112;11.566;2024-02-28T00:40:01;6.20;23.90
356;DHT22;62514;48.112;11.566;2024-02-28T00:42:27;6.20;24.10
356;DHT22;62514;48.112;11.566;2024-02-28T00:44:53;6.20;24.20
356;DHT22;62514;48.112;11.566;2024-02-28T00:47:19;6.20;24.40
356;DHT22;62514;48.112;11.566;2024-02-28T00:49:45;6.30;24.40
356;DHT22;62514;48.112;11.566;2024-02-28T00:52:11;6.30;24.20
356;DHT22;62514;48.112;11.566;2024-02-28T00:54:37;6.30;24.30
356;DHT22;62514;48.112;11.566;2024-02-28T00:57:03;6.40;24.20
356;DHT22;62514;48.112;11.566;2024-02-28T00:59:29;6.40;23.80
356;DHT22;62514;48.112;11.566;2024-02-28T01:01:55;6.30;23.50
356;DHT22;62514;48.112;11.566;2024-02-28T01:04:21;6.30;23.60
356;DHT22;62514;48.112;11.566;2024-02-28T01:06:47;6.30;23.80
356;DHT22;62514;48.112;11.566;2024-02-28T01:09:13;6.30;24.20
356;DHT22;62514;48.112;11.566;2024-02-28T01:11:39;6.30;24.30
356;DHT22;62514;48.112;11.566;2024-02-28T01:14:05;6.30;23.90
356;DHT22;62514;48.112;11.566;2024-02-28T01:16:31;6.30;23.80
356;DHT22;62514;48.112;11.566;2024-02-28T01:18:58;6.20;24.00
356;DHT22;62514;48.112;11.566;2024-02-28T01:21:24;6.20;24.20
356;DHT22;62514;48.112;11.566;2024-02-28T01:23:49;6.20;23.70
356;DHT22;62514;48.112;11.566;2024-02-28T01:26:15;6.20;23.40
356;DHT22;62514;48.112;11.566;2024-02-28T01:28:41;6.20;23.20
356;DHT22;62514;48.112;11.566;2024-02-28T01:31:08;6.20;23.20
356;DHT22;62514;48.112;11.566;2024-02-28T01:33:34;6.20;23.10
356;DHT22;62514;48.112;11.566;2024-02-28T01:36:01;6.20;23.60
356;DHT22;62514;48.112;11.566;2024-02-28T01:38:27;6.20;23.80
356;DHT22;62514;48.112;11.566;2024-02-28T01:40:53;6.20;23.70
356;DHT22;62514;48.112;11.566;2024-02-28T01:43:19;6.30;23.70
356;DHT22;62514;48.112;11.566;2024-02-28T01:45:45;6.20;22.90
356;DHT22;62514;48.112;11.566;2024-02-28T01:48:12;6.20;23.10
356;DHT22;62514;48.112;11.566;2024-02-28T01:50:38;6.20;23.00
356;DHT22;62514;48.112;11.566;2024-02-28T01:53:06;6.20;22.90
356;DHT22;62514;48.112;11.566;2024-02-28T01:55:35;6.30;23.00
356;DHT22;62514;48.112;11.566;2024-02-28T01:58:02;6.30;22.80
356;DHT22;62514;48.112;11.566;2024-02-28T02:00:32;6.30;22.90
356;DHT22;62514;48.112;11.566;2024-02-28T02:03:02;6.30;22.90
356;DHT22;62514;48.112;11.566;2024-02-28T02:05:29;6.30;22.70
356;DHT22;62514;48.112;11.566;2024-02-28T02:07:57;6.30;22.50
356;DHT22;62514;48.112;11.566;2024-02-28T02:10:25;6.30;22.50
356;DHT22;62514;48.112;11.566;2024-02-28T02:12:51;6.30;22.50
356;DHT22;62514;48.112;11.566;2024-02-28T02:15:18;6.40;22.50
356;DHT22;62514;48.112;11.566;2024-02-28T02:17:44;6.40;22.50
356;DHT22;62514;48.112;11.566;2024-02-28T02:20:11;6.30;22.70
356;DHT22;62514;48.112;11.566;2024-02-28T02:22:39;6.30;23.20
356;DHT22;62514;48.112;11.566;2024-02-28T02:25:06;6.30;23.80
356;DHT22;62514;48.112;11.566;2024-02-28T02:27:32;6.30;23.80
356;DHT22;62514;48.112;11.566;2024-02-28T02:29:58;6.30;23.80
356;DHT22;62514;48.112;11.566;2024-02-28T02:32:24;6.30;23.80
356;DHT22;62514;48.112;11.566;2024-02-28T02:34:50;6.30;24.40
356;DHT22;62514;48.112;11.566;2024-02-28T02:37:16;6.30;24.50
356;DHT22;62514;48.112;11.566;2024-02-28T02:39:42;6.30;24.40
356;DHT22;62514;48.112;11.566;2024-02-28T02:42:08;6.30;24.70
356;DHT22;62514;48.112;11.566;2024-02-28T02:44:34;6.20;25.20
356;DHT22;62514;48.112;11.566;2024-02-28T02:47:00;6.20;25.20
356;DHT22;62514;48.112;11.566;2024-02-28T02:49:26;6.20;25.20
356;DHT22;62514;48.112;11.566;2024-02-28T02:51:52;6.20;25.20
356;DHT22;62514;48.112;11.566;2024-02-28T02:54:18;6.20;25.30
356;DHT22;62514;48.112;11.566;2024-02-28T02:56:44;6.20;25.30
356;DHT22;62514;48.112;11.566;2024-02-28T02:59:10;6.10;26.30
356;DHT22;62514;48.112;11.566;2024-02-28T03:01:37;6.10;26.50
356;DHT22;62514;48.112;11.566;2024-02-28T03:04:04;6.10;26.80
356;DHT22;62514;48.112;11.566;2024-02-28T03:06:30;6.10;26.90
356;DHT22;62514;48.112;11.566;2024-02-28T03:08:55;6.10;26.70
356;DHT22;62514;48.112;11.566;2024-02-28T03:11:21;6.00;26.00
356;DHT22;62514;48.112;11.566;2024-02-28T03:13:47;6.00;26.40
356;DHT22;62514;48.112;11.566;2024-02-28T03:16:13;5.90;27.00
356;DHT22;62514;48.112;11.566;2024-02-28T03:18:39;5.80;27.50
356;DHT22;62514;48.112;11.566;2024-02-28T03:21:06;5.80;27.90
356;DHT22;62514;48.112;11.566;2024-02-28T03:23:32;5.90;28.00
356;DHT22;62514;48.112;11.566;2024-02-28T03:25:58;5.90;28.00
356;DHT22;62514;48.112;11.566;2024-02-28T03:28:24;5.90;28.00
356;DHT22;62514;48.112;11.566;2024-02-28T03:30:53;5.90;27.60
356;DHT22;62514;48.112;11.566;2024-02-28T03:33:19;5.80;27.90
356;DHT22;62514;48.112;11.566;2024-02-28T03:35:45;5.80;27.90
356;DHT22;62514;48.112;11.566;2024-02-28T03:38:11;5.70;28.20
356;DHT22;62514;48.112;11.566;2024-02-28T03:40:37;5.70;28.90
356;DHT22;62514;48.112;11.566;2024-02-28T03:43:03;5.70;29.00
356;DHT22;62514;48.112;11.566;2024-02-28T03:45:29;5.70;28.70
356;DHT22;62514;48.112;11.566;2024-02-28T03:47:55;5.60;28.70
356;DHT22;62514;48.112;11.566;2024-02-28T03:50:21;5.60;29.00
356;DHT22;62514;48.112;11.566;2024-02-28T03:52:47;5.60;29.30
356;DHT22;62514;48.112;11.566;2024-02-28T03:55:13;5.60;29.70
356;DHT22;62514;48.112;11.566;2024-02-28T03:57:39;5.50;30.10
356;DHT22;62514;48.112;11.566;2024-02-28T04:00:05;5.60;29.90
356;DHT22;62514;48.112;11.566;2024-02-28T04:02:31;5.60;28.90
356;DHT22;62514;48.112;11.566;2024-02-28T04:04:57;5.60;28.10
356;DHT22;62514;48.112;11.566;2024-02-28T04:07:24;5.60;27.90
356;DHT22;62514;48.112;11.566;2024-02-28T04:09:50;5.60;27.80
356;DHT22;62514;48.112;11.566;2024-02-28T04:12:16;5.60;27.80
356;DHT22;62514;48.112;11.566;2024-02-28T04:14:42;5.60;27.80
356;DHT22;62514;48.112;11.566;2024-02-28T04:17:07;5.60;27.80
356;DHT22;62514;48.112;11.566;2024-02-28T04:19:33;5.60;27.80
356;DHT22;62514;48.112;11.566;2024-02-28T04:22:03;5.60;27.80
356;DHT22;62514;48.112;11.566;2024-02-28T04:24:29;5.60;27.80
356;DHT22;62514;48.112;11.566;2024-02-28T04:26:55;5.50;27.80
356;DHT22;62514;48.112;11.566;2024-02-28T04:29:21;5.50;27.80
356;DHT22;62514;48.112;11.566;2024-02-28T04:31:48;5.50;28.20
356;DHT22;62514;48.112;11.566;2024-02-28T04:34:14;5.50;28.70
356;DHT22;62514;48.112;11.566;2024-02-28T04:36:40;5.50;28.50
356;DHT22;62514;48.112;11.566;2024-02-28T04:39:05;5.50;28.30
356;DHT22;62514;48.112;11.566;2024-02-28T04:41:33;5.60;28.40
356;DHT22;62514;48.112;11.566;2024-02-28T04:43:59;5.60;27.80
356;DHT22;62514;48.112;11.566;2024-02-28T04:46:25;5.50;27.40
356;DHT22;62514;48.112;11.566;2024-02-28T04:48:51;5.50;27.50
356;DHT22;62514;48.112;11.566;2024-02-28T04:51:17;5.40;26.90
356;DHT22;62514;48.112;11.566;2024-02-28T04:53:43;5.40;27.70
356;DHT22;62514;48.112;11.566;2024-02-28T04:56:10;5.40;27.70
356;DHT22;62514;48.112;11.566;2024-02-28T04:58:36;5.30;27.70
356;DHT22;62514;48.112;11.566;2024-02-28T05:01:02;5.30;27.80
356;DHT22;62514;48.112;11.566;2024-02-28T05:03:29;5.20;28.50
356;DHT22;62514;48.112;11.566;2024-02-28T05:05:55;5.30;28.70
356;DHT22;62514;48.112;11.566;2024-02-28T05:08:21;5.40;28.40
356;DHT22;62514;48.112;11.566;2024-02-28T05:10:47;5.30;28.10
356;DHT22;62514;48.112;11.566;2024-02-28T05:13:13;5.40;27.70
356;DHT22;62514;48.112;11.566;2024-02-28T05:15:39;5.40;28.00
356;DHT22;62514;48.112;11.566;2024-02-28T05:18:05;5.30;27.70
356;DHT22;62514;48.112;11.566;2024-02-28T05:20:31;5.40;27.70
356;DHT22;62514;48.112;11.566;2024-02-28T05:22:57;5.40;28.00
356;DHT22;62514;48.112;11.566;2024-02-28T05:25:23;5.40;27.80
356;DHT22;62514;48.112;11.566;2024-02-28T05:27:49;5.50;28.10
356;DHT22;62514;48.112;11.566;2024-02-28T05:30:15;5.40;27.70
356;DHT22;62514;48.112;11.566;2024-02-28T05:32:41;5.40;27.70
356;DHT22;62514;48.112;11.566;2024-02-28T05:35:07;5.40;27.70
356;DHT22;62514;48.112;11.566;2024-02-28T05:37:33;5.50;27.80
356;DHT22;62514;48.112;11.566;2024-02-28T05:40:00;5.50;27.80
356;DHT22;62514;48.112;11.566;2024-02-28T05:42:26;5.50;27.80
356;DHT22;62514;48.112;11.566;2024-02-28T05:44:52;5.60;27.80
356;DHT22;62514;48.112;11.566;2024-02-28T05:47:18;5.60;27.50
356;DHT22;62514;48.112;11.566;2024-02-28T05:49:44;5.60;26.80
356;DHT22;62514;48.112;11.566;2024-02-28T05:52:10;5.60;26.90
356;DHT22;62514;48.112;11.566;2024-02-28T05:54:36;5.60;26.90
356;DHT22;62514;48.112;11.566;2024-02-28T05:57:02;5.60;26.90
356;DHT22;62514;48.112;11.566;2024-02-28T05:59:29;5.60;27.20
356;DHT22;62514;48.112;11.566;2024-02-28T06:01:55;5.60;26.80
356;DHT22;62514;48.112;11.566;2024-02-28T06:04:21;5.60;27.10
356;DHT22;62514;48.112;11.566;2024-02-28T06:06:47;5.70;26.60
356;DHT22;62514;48.112;11.566;2024-02-28T06:09:14;5.60;26.70
356;DHT22;62514;48.112;11.566;2024-02-28T06:11:40;5.60;27.00
356;DHT22;62514;48.112;11.566;2024-02-28T06:14:06;5.70;27.10
356;DHT22;62514;48.112;11.566;2024-02-28T06:16:32;5.70;27.00
356;DHT22;62514;48.112;11.566;2024-02-28T06:18:58;5.70;26.90
356;DHT22;62514;48.112;11.566;2024-02-28T06:21:24;5.60;26.20
356;DHT22;62514;48.112;11.566;2024-02-28T06:23:50;5.70;26.80
356;DHT22;62514;48.112;11.566;2024-02-28T06:26:16;5.70;27.10
356;DHT22;62514;48.112;11.566;2024-02-28T06:28:43;5.70;27.00
356;DHT22;62514;48.112;11.566;2024-02-28T06:31:15;5.70;26.60
356;DHT22;62514;48.112;11.566;2024-02-28T06:33:42;5.80;26.40
356;DHT22;62514;48.112;11.566;2024-02-28T06:36:08;5.80;26.40
356;DHT22;62514;48.112;11.566;2024-02-28T06:38:34;5.90;26.20
356;DHT22;62514;48.112;11.566;2024-02-28T06:41:05;5.90;25.80
356;DHT22;62514;48.112;11.566;2024-02-28T06:43:33;5.90;25.40
356;DHT22;62514;48.112;11.566;2024-02-28T06:46:01;5.90;25.40
356;DHT22;62514;48.112;11.566;2024-02-28T06:48:28;5.80;26.30
356;DHT22;62514;48.112;11.566;2024-02-28T06:50:54;5.70;26.80
356;DHT22;62514;48.112;11.566;2024-02-28T06:53:20;5.70;26.90
356;DHT22;62514;48.112;11.566;2024-02-28T06:55:46;5.80;26.60
356;DHT22;62514;48.112;11.566;2024-02-28T06:58:14;5.80;25.80
356;DHT22;62514;48.112;11.566;2024-02-28T07:00:40;5.80;25.80
356;DHT22;62514;48.112;11.566;2024-02-28T07:03:06;5.80;25.10
356;DHT22;62514;48.112;11.566;2024-02-28T07:05:33;5.80;25.70
356;DHT22;62514;48.112;11.566;2024-02-28T07:08:02;5.70;25.50
356;DHT22;62514;48.112;11.566;2024-02-28T07:10:28;5.60;26.40
356;DHT22;62514;48.112;11.566;2024-02-28T07:12:54;5.60;27.30
356;DHT22;62514;48.112;11.566;2024-02-28T07:15:20;5.70;27.30
356;DHT22;62514;48.112;11.566;2024-02-28T07:17:47;5.80;27.10
356;DHT22;62514;48.112;11.566;2024-02-28T07:20:14;5.70;25.10
356;DHT22;62514;48.112;11.566;2024-02-28T07:22:42;5.80;25.60
356;DHT22;62514;48.112;11.566;2024-02-28T07:25:08;5.80;25.10
356;DHT22;62514;48.112;11.566;2024-02-28T07:27:34;5.90;25.20
356;DHT22;62514;48.112;11.566;2024-02-28T07:30:01;5.90;25.20
356;DHT22;62514;48.112;11.566;2024-02-28T07:32:29;6.00;25.20
356;DHT22;62514;48.112;11.566;2024-02-28T07:35:01;6.10;25.10
356;DHT22;62514;48.112;11.566;2024-02-28T07:37:27;6.10;23.70
356;DHT22;62514;48.112;11.566;2024-02-28T07:39:53;6.20;22.80
356;DHT22;62514;48.112;11.566;2024-02-28T07:42:19;6.30;22.50
356;DHT22;62514;48.112;11.566;2024-02-28T07:44:44;6.30;22.50
356;DHT22;62514;48.112;11.566;2024-02-28T07:47:10;6.30;22.20
356;DHT22;62514;48.112;11.566;2024-02-28T07:49:36;6.30;21.60
356;DHT22;62514;48.112;11.566;2024-02-28T07:52:02;6.40;22.10
356;DHT22;62514;48.112;11.566;2024-02-28T07:54:28;6.30;21.50
356;DHT22;62514;48.112;11.566;2024-02-28T07:56:54;6.20;22.40
356;DHT22;62514;48.112;11.566;2024-02-28T07:59:20;6.10;22.80
356;DHT22;62514;48.112;11.566;2024-02-28T08:01:46;6.10;23.30
356;DHT22;62514;48.112;11.566;2024-02-28T08:04:12;6.10;22.80
356;DHT22;62514;48.112;11.566;2024-02-28T08:06:40;6.20;22.40
356;DHT22;62514;48.112;11.566;2024-02-28T08:09:06;6.10;23.00
356;DHT22;62514;48.112;11.566;2024-02-28T08:11:33;6.20;23.50
356;DHT22;62514;48.112;11.566;2024-02-28T08:13:58;6.20;23.00
356;DHT22;62514;48.112;11.566;2024-02-28T08:16:24;6.20;21.80
356;DHT22;62514;48.112;11.566;2024-02-28T08:18:50;6.20;22.30
356;DHT22;62514;48.112;11.566;2024-02-28T08:21:16;6.10;22.40
356;DHT22;62514;48.112;11.566;2024-02-28T08:23:43;6.10;22.40
356;DHT22;62514;48.112;11.566;2024-02-28T08:26:10;6.10;23.00
356;DHT22;62514;48.112;11.566;2024-02-28T08:28:36;6.20;23.40
356;DHT22;62514;48.112;11.566;2024-02-28T08:31:02;6.30;23.20
356;DHT22;62514;48.112;11.566;2024-02-28T08:33:28;6.40;22.50
356;DHT22;62514;48.112;11.566;2024-02-28T08:35:54;6.30;22.20
356;DHT22;62514;48.112;11.566;2024-02-28T08:38:20;6.40;22.20
356;DHT22;62514;48.112;11.566;2024-02-28T08:40:46;6.20;22.40
356;DHT22;62514;48.112;11.566;2024-02-28T08:43:12;6.20;22.40
356;DHT22;62514;48.112;11.566;2024-02-28T08:45:38;6.20;22.70
356;DHT22;62514;48.112;11.566;2024-02-28T08:48:04;6.40;22.70
356;DHT22;62514;48.112;11.566;2024-02-28T08:50:30;6.60;22.60
356;DHT22;62514;48.112;11.566;2024-02-28T08:52:56;6.70;21.10
356;DHT22;62514;48.112;11.566;2024-02-28T08:55:22;6.80;19.80
356;DHT22;62514;48.112;11.566;2024-02-28T08:57:49;6.70;19.00
356;DHT22;62514;48.112;11.566;2024-02-28T09:00:15;6.70;19.30
356;DHT22;62514;48.112;11.566;2024-02-28T09:02:41;6.60;19.30
356;DHT22;62514;48.112;11.566;2024-02-28T09:05:07;6.60;19.80
356;DHT22;62514;48.112;11.566;2024-02-28T09:07:35;6.70;19.90
356;DHT22;62514;48.112;11.566;2024-02-28T09:10:04;6.80;19.50
356;DHT22;62514;48.112;11.566;2024-02-28T09:12:31;6.90;19.20
356;DHT22;62514;48.112;11.566;2024-02-28T09:14:57;7.00;18.60
356;DHT22;62514;48.112;11.566;2024-02-28T09:17:24;6.80;18.70
356;DHT22;62514;48.112;11.566;2024-02-28T09:19:50;6.80;19.00
356;DHT22;62514;48.112;11.566;2024-02-28T09:22:17;6.70;18.60
356;DHT22;62514;48.112;11.566;2024-02-28T09:24:43;6.60;19.00
356;DHT22;62514;48.112;11.566;2024-02-28T09:27:11;6.50;19.60
356;DHT22;62514;48.112;11.566;2024-02-28T09:29:37;6.60;20.00
356;DHT22;62514;48.112;11.566;2024-02-28T09:32:04;6.70;20.10
356;DHT22;62514;48.112;11.566;2024-02-28T09:34:30;6.90;19.50
356;DHT22;62514;48.112;11.566;2024-02-28T09:36:56;6.80;18.10
356;DHT22;62514;48.112;11.566;2024-02-28T09:39:22;6.80;18.30
356;DHT22;62514;48.112;11.566;2024-02-28T09:41:48;6.80;18.10
356;DHT22;62514;48.112;11.566;2024-02-28T09:44:18;6.90;17.90
356;DHT22;62514;48.112;11.566;2024-02-28T09:46:44;7.00;17.80
356;DHT22;62514;48.112;11.566;2024-02-28T09:49:10;7.00;17.80
356;DHT22;62514;48.112;11.566;2024-02-28T09:51:36;7.00;17.70
356;DHT22;62514;48.112;11.566;2024-02-28T09:54:03;7.10;17.80
356;DHT22;62514;48.112;11.566;2024-02-28T09:56:31;7.10;17.70
356;DHT22;62514;48.112;11.566;2024-02-28T09:58:58;7.00;17.70
356;DHT22;62514;48.112;11.566;2024-02-28T10:01:28;7.10;17.90
356;DHT22;62514;48.112;11.566;2024-02-28T10:03:55;7.10;18.30
356;DHT22;62514;48.112;11.566;2024-02-28T10:06:22;7.00;17.50
356;DHT22;62514;48.112;11.566;2024-02-28T10:08:48;7.00;17.70
356;DHT22;62514;48.112;11.566;2024-02-28T10:11:24;6.80;18.50
356;DHT22;62514;48.112;11.566;2024-02-28T10:13:50;6.80;18.40
356;DHT22;62514;48.112;11.566;2024-02-28T10:16:18;6.80;18.20
356;DHT22;62514;48.112;11.566;2024-02-28T10:18:45;6.90;18.50
356;DHT22;62514;48.112;11.566;2024-02-28T10:21:11;7.10;18.10
356;DHT22;62514;48.112;11.566;2024-02-28T10:23:41;7.30;17.90
356;DHT22;62514;48.112;11.566;2024-02-28T10:26:11;7.50;16.80
356;DHT22;62514;48.112;11.566;2024-02-28T10:28:40;7.60;15.70
356;DHT22;62514;48.112;11.566;2024-02-28T10:31:07;7.70;15.00
356;DHT22;62514;48.112;11.566;2024-02-28T10:33:33;7.70;15.00
356;DHT22;62514;48.112;11.566;2024-02-28T10:36:03;7.80;14.90
356;DHT22;62514;48.112;11.566;2024-02-28T10:38:31;7.80;13.70
356;DHT22;62514;48.112;11.566;2024-02-28T10:41:00;7.80;13.80
356;DHT22;62514;48.112;11.566;2024-02-28T10:43:28;7.80;13.60
356;DHT22;62514;48.112;11.566;2024-02-28T10:46:00;7.90;13.50
356;DHT22;62514;48.112;11.566;2024-02-28T10:48:27;7.90;13.10
356;DHT22;62514;48.112;11.566;2024-02-28T10:50:53;7.80;13.20
356;DHT22;62514;48.112;11.566;2024-02-28T10:53:32;7.80;13.40
356;DHT22;62514;48.112;11.566;2024-02-28T10:56:03;8.00;13.50
356;DHT22;62514;48.112;11.566;2024-02-28T10:58:37;8.10;13.00
356;DHT22;62514;48.112;11.566;2024-02-28T11:01:07;8.00;12.50
356;DHT22;62514;48.112;11.566;2024-02-28T11:03:34;8.10;11.80
356;DHT22;62514;48.112;11.566;2024-02-28T11:06:00;7.90;10.80
356;DHT22;62514;48.112;11.566;2024-02-28T11:08:28;8.00;11.50
356;DHT22;62514;48.112;11.566;2024-02-28T11:11:01;8.30;11.30
356;DHT22;62514;48.112;11.566;2024-02-28T11:13:28;8.30;10.20
356;DHT22;62514;48.112;11.566;2024-02-28T11:15:54;8.30;9.70
356;DHT22;62514;48.112;11.566;2024-02-28T11:18:23;7.90;10.80
356;DHT22;62514;48.112;11.566;2024-02-28T11:20:49;7.80;11.70
356;DHT22;62514;48.112;11.566;2024-02-28T11:23:19;7.90;11.80
356;DHT22;62514;48.112;11.566;2024-02-28T11:25:45;8.00;12.00
356;DHT22;62514;48.112;11.566;2024-02-28T11:28:11;8.10;11.20
356;DHT22;62514;48.112;11.566;2024-02-28T11:30:37;8.00;10.50
356;DHT22;62514;48.112;11.566;2024-02-28T11:33:03;7.90;11.10
356;DHT22;62514;48.112;11.566;2024-02-28T11:35:30;7.70;11.70
356;DHT22;62514;48.112;11.566;2024-02-28T11:37:57;7.30;13.10
356;DHT22;62514;48.112;11.566;2024-02-28T11:40:26;7.40;13.70
356;DHT22;62514;48.112;11.566;2024-02-28T11:42:53;7.50;12.60
356;DHT22;62514;48.112;11.566;2024-02-28T11:45:19;7.40;13.30
356;DHT22;62514;48.112;11.566;2024-02-28T11:47:45;7.30;13.30
356;DHT22;62514;48.112;11.566;2024-02-28T11:50:13;7.40;13.40
356;DHT22;62514;48.112;11.566;2024-02-28T11:52:40;7.60;13.40
356;DHT22;62514;48.112;11.566;2024-02-28T11:55:07;7.70;12.50
356;DHT22;62514;48.112;11.566;2024-02-28T11:57:33;7.80;12.10
356;DHT22;62514;48.112;11.566;2024-02-28T12:00:08;7.70;11.70
356;DHT22;62514;48.112;11.566;2024-02-28T12:02:35;7.60;12.20
356;DHT22;62514;48.112;11.566;2024-02-28T12:05:06;7.50;13.40
356;DHT22;62514;48.112;11.566;2024-02-28T12:07:32;7.50;13.00
356;DHT22;62514;48.112;11.566;2024-02-28T12:09:59;7.50;13.40
356;DHT22;62514;48.112;11.566;2024-02-28T12:12:27;7.50;13.40
356;DHT22;62514;48.112;11.566;2024-02-28T12:14:57;7.40;14.20
356;DHT22;62514;48.112;11.566;2024-02-28T12:17:25;7.40;14.80
356;DHT22;62514;48.112;11.566;2024-02-28T12:19:51;7.30;15.20
356;DHT22;62514;48.112;11.566;2024-02-28T12:22:17;7.30;15.40
356;DHT22;62514;48.112;11.566;2024-02-28T12:24:43;7.30;15.20
356;DHT22;62514;48.112;11.566;2024-02-28T12:27:09;7.20;15.50
356;DHT22;62514;48.112;11.566;2024-02-28T12:29:35;6.90;16.40
356;DHT22;62514;48.112;11.566;2024-02-28T12:32:01;6.70;17.70
356;DHT22;62514;48.112;11.566;2024-02-28T12:34:27;6.70;18.40
356;DHT22;62514;48.112;11.566;2024-02-28T12:36:53;6.80;18.40
356;DHT22;62514;48.112;11.566;2024-02-28T12:39:19;7.00;17.60
356;DHT22;62514;48.112;11.566;2024-02-28T12:41:45;7.10;17.40
356;DHT22;62514;48.112;11.566;2024-02-28T12:44:11;7.00;16.30
356;DHT22;62514;48.112;11.566;2024-02-28T12:46:37;7.00;16.80
356;DHT22;62514;48.112;11.566;2024-02-28T12:49:03;6.70;16.90
356;DHT22;62514;48.112;11.566;2024-02-28T12:51:41;6.60;17.60
356;DHT22;62514;48.112;11.566;2024-02-28T12:54:08;6.70;17.70
356;DHT22;62514;48.112;11.566;2024-02-28T12:56:38;6.70;17.10
356;DHT22;62514;48.112;11.566;2024-02-28T12:59:05;6.80;17.10
356;DHT22;62514;48.112;11.566;2024-02-28T13:01:33;7.10;16.80
356;DHT22;62514;48.112;11.566;2024-02-28T13:03:59;7.40;15.30
356;DHT22;62514;48.112;11.566;2024-02-28T13:06:25;7.50;13.60
356;DHT22;62514;48.112;11.566;2024-02-28T13:08:51;7.70;13.40
356;DHT22;62514;48.112;11.566;2024-02-28T13:11:21;7.90;12.70
356;DHT22;62514;48.112;11.566;2024-02-28T13:13:48;8.00;11.50
356;DHT22;62514;48.112;11.566;2024-02-28T13:16:16;8.10;11.20
356;DHT22;62514;48.112;11.566;2024-02-28T13:18:41;8.30;10.70
356;DHT22;62514;48.112;11.566;2024-02-28T13:21:08;8.40;10.10
356;DHT22;62514;48.112;11.566;2024-02-28T13:23:35;8.40;8.90
356;DHT22;62514;48.112;11.566;2024-02-28T13:26:01;8.30;8.40
356;DHT22;62514;48.112;11.566;2024-02-28T13:28:27;8.20;8.90
356;DHT22;62514;48.112;11.566;2024-02-28T13:31:00;8.20;9.40
356;DHT22;62514;48.112;11.566;2024-02-28T13:33:26;8.10;9.10
356;DHT22;62514;48.112;11.566;2024-02-28T13:35:53;7.90;9.60
356;DHT22;62514;48.112;11.566;2024-02-28T13:38:19;7.70;10.10
356;DHT22;62514;48.112;11.566;2024-02-28T13:40:49;7.40;11.50
356;DHT22;62514;48.112;11.566;2024-02-28T13:43:16;7.30;11.70
356;DHT22;62514;48.112;11.566;2024-02-28T13:45:49;7.20;12.50
356;DHT22;62514;48.112;11.566;2024-02-28T13:48:17;7.30;12.80
356;DHT22;62514;48.112;11.566;2024-02-28T13:50:47;7.40;13.20
356;DHT22;62514;48.112;11.566;2024-02-28T13:53:14;7.60;12.40
356;DHT22;62514;48.112;11.566;2024-02-28T13:55:41;7.60;11.70
356;DHT22;62514;48.112;11.566;2024-02-28T13:58:10;7.70;11.00
356;DHT22;62514;48.112;11.566;2024-02-28T14:00:37;7.70;10.20
356;DHT22;62514;48.112;11.566;2024-02-28T14:03:04;7.70;10.60
356;DHT22;62514;48.112;11.566;2024-02-28T14:05:30;7.80;10.50
356;DHT22;62514;48.112;11.566;2024-02-28T14:07:56;7.80;10.20
356;DHT22;62514;48.112;11.566;2024-02-28T14:10:26;7.60;10.50
356;DHT22;62514;48.112;11.566;2024-02-28T14:12:52;7.40;12.00
356;DHT22;62514;48.112;11.566;2024-02-28T14:15:19;7.40;12.50
356;DHT22;62514;48.112;11.566;2024-02-28T14:17:46;7.50;12.30
356;DHT22;62514;48.112;11.566;2024-02-28T14:20:12;7.60;12.50
356;DHT22;62514;48.112;11.566;2024-02-28T14:22:38;7.70;12.50
356;DHT22;62514;48.112;11.566;2024-02-28T14:25:16;7.60;12.10
356;DHT22;62514;48.112;11.566;2024-02-28T14:27:44;7.60;11.30
356;DHT22;62514;48.112;11.566;2024-02-28T14:30:10;7.60;12.20
356;DHT22;62514;48.112;11.566;2024-02-28T14:32:37;7.70;12.30
356;DHT22;62514;48.112;11.566;2024-02-28T14:35:07;7.70;11.40
356;DHT22;62514;48.112;11.566;2024-02-28T14:37:35;7.60;12.50
356;DHT22;62514;48.112;11.566;2024-02-28T14:40:02;7.60;12.10
356;DHT22;62514;48.112;11.566;2024-02-28T14:42:30;7.70;11.50
356;DHT22;62514;48.112;11.566;2024-02-28T14:44:56;7.70;11.10
356;DHT22;62514;48.112;11.566;2024-02-28T14:47:22;7.80;10.20
356;DHT22;62514;48.112;11.566;2024-02-28T14:49:48;7.80;9.40
356;DHT22;62514;48.112;11.566;2024-02-28T14:52:14;7.70;9.40
356;DHT22;62514;48.112;11.566;2024-02-28T14:54:40;7.70;9.70
356;DHT22;62514;48.112;11.566;2024-02-28T14:57:06;7.70;10.10
356;DHT22;62514;48.112;11.566;2024-02-28T14:59:32;7.70;11.10
356;DHT22;62514;48.112;11.566;2024-02-28T15:01:59;7.60;11.50
356;DHT22;62514;48.112;11.566;2024-02-28T15:04:25;7.60;12.50
356;DHT22;62514;48.112;11.566;2024-02-28T15:06:51;7.60;11.80
356;DHT22;62514;48.112;11.566;2024-02-28T15:09:19;7.60;12.00
356;DHT22;62514;48.112;11.566;2024-02-28T15:11:48;7.60;11.90
356;DHT22;62514;48.112;11.566;2024-02-28T15:14:14;7.60;12.10
356;DHT22;62514;48.112;11.566;2024-02-28T15:16:40;7.60;12.00
356;DHT22;62514;48.112;11.566;2024-02-28T15:19:06;7.60;11.80
356;DHT22;62514;48.112;11.566;2024-02-28T15:21:32;7.60;11.80
356;DHT22;62514;48.112;11.566;2024-02-28T15:23:58;7.50;11.70
356;DHT22;62514;48.112;11.566;2024-02-28T15:26:24;7.40;11.80
356;DHT22;62514;48.112;11.566;2024-02-28T15:28:50;7.30;12.00
356;DHT22;62514;48.112;11.566;2024-02-28T15:31:16;7.30;12.50
356;DHT22;62514;48.112;11.566;2024-02-28T15:33:42;7.20;12.70
356;DHT22;62514;48.112;11.566;2024-02-28T15:36:08;7.20;12.70
356;DHT22;62514;48.112;11.566;2024-02-28T15:38:35;7.20;13.10
356;DHT22;62514;48.112;11.566;2024-02-28T15:41:01;7.10;13.20
356;DHT22;62514;48.112;11.566;2024-02-28T15:43:27;7.10;13.20
356;DHT22;62514;48.112;11.566;2024-02-28T15:45:53;7.10;13.20
356;DHT22;62514;48.112;11.566;2024-02-28T15:48:21;7.00;13.40
356;DHT22;62514;48.112;11.566;2024-02-28T15:50:47;7.00;13.20
356;DHT22;62514;48.112;11.566;2024-02-28T15:53:17;7.00;13.20
356;DHT22;62514;48.112;11.566;2024-02-28T15:55:43;7.10;13.50
356;DHT22;62514;48.112;11.566;2024-02-28T15:58:09;7.10;13.20